createdAt,value
2019-02-17T00:00:25.820Z,102592.50
2019-02-17T00:02:57.818Z,102597.09
2019-02-17T00:05:32.234Z,102599.08
2019-02-17T00:08:04.211Z,102596.75
2019-02-17T00:10:36.162Z,102600.48
2019-02-17T00:13:08.388Z,102600.45
2019-02-17T00:15:40.363Z,102590.83
2019-02-17T00:18:12.297Z,102593.61
2019-02-17T00:20:44.255Z,102601.09
2019-02-17T00:23:16.264Z,102596.58
2019-02-17T00:25:48.358Z,102595.03
2019-02-17T00:28:20.294Z,102598.11
2019-02-17T00:30:52.714Z,102599.31
2019-02-17T00:33:24.647Z,102598.56
2019-02-17T00:35:56.595Z,102596.66
2019-02-17T00:38:28.525Z,102594.14
2019-02-17T00:41:00.487Z,102597.24
2019-02-17T00:43:32.419Z,102593.81
2019-02-17T00:46:04.357Z,102586.64
2019-02-17T00:48:36.307Z,102589.39
2019-02-17T00:51:08.239Z,102582.75
2019-02-17T00:53:40.533Z,102583.86
2019-02-17T00:56:12.479Z,102581.33
2019-02-17T00:58:44.777Z,102585.09
2019-02-17T01:01:16.807Z,102579.20
2019-02-17T01:03:49.243Z,102575.14
2019-02-17T01:06:21.362Z,102582.67
2019-02-17T01:08:53.291Z,102586.53
2019-02-17T01:11:25.244Z,102583.53
2019-02-17T01:13:57.169Z,102580.10
2019-02-17T01:16:29.108Z,102583.80
2019-02-17T01:19:01.042Z,102595.66
2019-02-17T01:21:32.994Z,102588.11
2019-02-17T01:24:05.862Z,102590.30
2019-02-17T01:26:37.820Z,102595.41
2019-02-17T01:29:19.837Z,102601.38
2019-02-17T01:31:43.717Z,102594.67
2019-02-17T01:34:15.710Z,102590.00
2019-02-17T01:36:47.650Z,102587.61
2019-02-17T01:39:19.761Z,102594.45
2019-02-17T01:41:51.697Z,102596.72
2019-02-17T01:44:23.638Z,102582.81
2019-02-17T01:46:56.143Z,102581.02
2019-02-17T01:49:28.465Z,102582.10
2019-02-17T01:52:00.472Z,102589.13
2019-02-17T01:54:32.789Z,102584.72
2019-02-17T01:57:05.414Z,102584.75
2019-02-17T01:59:37.625Z,102589.89
2019-02-17T02:02:09.566Z,102586.81
2019-02-17T02:04:41.497Z,102586.22
2019-02-17T02:07:13.630Z,102576.88
2019-02-17T02:09:45.561Z,102574.95
2019-02-17T02:12:17.581Z,102572.43
2019-02-17T02:14:49.531Z,102575.77
2019-02-17T02:17:21.479Z,102572.92
2019-02-17T02:19:53.475Z,102573.51
2019-02-17T02:22:25.426Z,102577.62
2019-02-17T02:24:57.673Z,102575.08
2019-02-17T02:27:29.675Z,102571.52
2019-02-17T02:30:01.748Z,102576.36
2019-02-17T02:32:34.332Z,102574.69
2019-02-17T02:35:07.325Z,102570.33
2019-02-17T02:37:39.648Z,102565.30
2019-02-17T02:40:11.590Z,102561.44
2019-02-17T02:42:47.816Z,102565.69
2019-02-17T02:45:19.803Z,102561.38
2019-02-17T02:47:51.993Z,102561.05
2019-02-17T02:50:23.960Z,102557.81
2019-02-17T02:52:56.151Z,102566.02
2019-02-17T02:55:28.106Z,102566.28
2019-02-17T02:58:00.024Z,102566.44
2019-02-17T03:00:31.975Z,102558.20
2019-02-17T03:03:03.898Z,102554.59
2019-02-17T03:05:37.487Z,102555.74
2019-02-17T03:08:09.430Z,102553.13
2019-02-17T03:10:41.356Z,102558.03
2019-02-17T03:13:13.348Z,102557.28
2019-02-17T03:15:45.302Z,102557.19
2019-02-17T03:18:17.273Z,102556.53
2019-02-17T03:20:49.296Z,102554.02
2019-02-17T03:23:21.245Z,102556.75
2019-02-17T03:25:53.181Z,102563.98
2019-02-17T03:28:25.120Z,102566.14
2019-02-17T03:31:01.569Z,102565.13
2019-02-17T03:33:33.506Z,102568.91
2019-02-17T03:36:05.447Z,102568.22
2019-02-17T03:38:37.370Z,102566.06
2019-02-17T03:41:09.412Z,102565.02
2019-02-17T03:43:41.352Z,102563.57
2019-02-17T03:46:13.286Z,102570.20
2019-02-17T03:48:45.304Z,102570.95
2019-02-17T03:51:17.543Z,102565.02
2019-02-17T03:53:49.575Z,102570.19
2019-02-17T03:56:21.889Z,102570.11
2019-02-17T03:58:53.886Z,102566.41
2019-02-17T04:01:25.895Z,102579.45
2019-02-17T04:03:58.189Z,102573.47
2019-02-17T04:06:30.156Z,102570.97
2019-02-17T04:09:02.111Z,102572.28
2019-02-17T04:11:34.053Z,102579.58
2019-02-17T04:14:05.987Z,102578.14
2019-02-17T04:16:37.923Z,102579.05
2019-02-17T04:19:09.893Z,102576.86
2019-02-17T04:21:41.819Z,102579.53
2019-02-17T04:24:13.763Z,102574.47
2019-02-17T04:26:46.070Z,102567.03
2019-02-17T04:29:18.009Z,102562.52
2019-02-17T04:31:49.937Z,102563.24
2019-02-17T04:34:21.877Z,102559.41
2019-02-17T04:36:53.811Z,102552.09
2019-02-17T04:39:26.233Z,102556.34
2019-02-17T04:41:58.162Z,102559.72
2019-02-17T04:44:30.124Z,102553.83
2019-02-17T04:47:02.061Z,102543.92
2019-02-17T04:49:34.164Z,102550.23
2019-02-17T04:52:06.429Z,102560.41
2019-02-17T04:54:38.362Z,102558.26
2019-02-17T04:57:10.323Z,102570.17
2019-02-17T04:59:42.256Z,102565.34
2019-02-17T05:02:14.228Z,102567.66
2019-02-17T05:04:46.749Z,102568.34
2019-02-17T05:07:18.701Z,102569.69
2019-02-17T05:09:50.631Z,102574.28
2019-02-17T05:12:22.947Z,102577.25
2019-02-17T05:14:55.150Z,102581.14
2019-02-17T05:17:27.186Z,102576.93
2019-02-17T05:19:59.131Z,102570.48
2019-02-17T05:22:32.618Z,102576.44
2019-02-17T05:25:06.183Z,102570.35
2019-02-17T05:27:41.845Z,102578.47
2019-02-17T05:30:14.789Z,102578.27
2019-02-17T05:32:47.093Z,102577.07
2019-02-17T05:35:19.267Z,102580.70
2019-02-17T05:37:51.412Z,102568.89
2019-02-17T05:40:23.509Z,102572.10
2019-02-17T05:42:55.444Z,102570.23
2019-02-17T05:45:27.389Z,102574.46
2019-02-17T05:47:59.964Z,102577.67
2019-02-17T05:50:34.921Z,102575.55
2019-02-17T05:53:07.319Z,102575.37
2019-02-17T05:55:39.265Z,102569.42
2019-02-17T05:58:11.205Z,102570.57
2019-02-17T06:00:43.599Z,102574.30
2019-02-17T06:03:15.594Z,102569.06
2019-02-17T06:05:47.699Z,102570.34
2019-02-17T06:08:20.178Z,102572.66
2019-02-17T06:10:52.153Z,102567.53
2019-02-17T06:13:24.072Z,102578.22
2019-02-17T06:15:56.014Z,102580.84
2019-02-17T06:18:28.238Z,102576.00
2019-02-17T06:21:00.177Z,102582.37
2019-02-17T06:23:32.200Z,102583.45
2019-02-17T06:26:04.229Z,102581.09
2019-02-17T06:28:36.165Z,102580.02
2019-02-17T06:31:14.334Z,102580.89
2019-02-17T06:33:41.834Z,102587.34
2019-02-17T06:36:13.814Z,102584.42
2019-02-17T06:38:45.742Z,102586.84
2019-02-17T06:41:17.685Z,102593.71
2019-02-17T06:43:49.604Z,102596.36
2019-02-17T06:46:23.185Z,102602.11
2019-02-17T06:48:55.200Z,102599.89
2019-02-17T06:51:27.959Z,102597.39
2019-02-17T06:53:59.975Z,102601.58
2019-02-17T06:56:36.239Z,102597.33
2019-02-17T06:59:08.173Z,102599.26
2019-02-17T07:01:40.099Z,102609.23
2019-02-17T07:04:12.995Z,102611.59
2019-02-17T07:06:54.191Z,102613.77
2019-02-17T07:09:26.131Z,102611.94
2019-02-17T07:11:58.064Z,102615.14
2019-02-17T07:14:30.059Z,102614.09
2019-02-17T07:17:01.997Z,102616.67
2019-02-17T07:19:35.479Z,102618.80
2019-02-17T07:22:09.084Z,102623.28
2019-02-17T07:24:41.018Z,102625.23
2019-02-17T07:27:12.966Z,102623.14
2019-02-17T07:29:44.898Z,102626.45
2019-02-17T07:32:16.839Z,102627.23
2019-02-17T07:34:48.910Z,102622.98
2019-02-17T07:37:20.862Z,102625.49
2019-02-17T07:39:52.789Z,102624.87
2019-02-17T07:42:24.734Z,102631.13
2019-02-17T07:44:56.669Z,102641.20
2019-02-17T07:47:28.637Z,102640.73
2019-02-17T07:50:00.565Z,102637.39
2019-02-17T07:52:34.239Z,102638.94
2019-02-17T07:55:10.269Z,102638.77
2019-02-17T07:57:42.227Z,102640.34
2019-02-17T08:00:14.287Z,102641.58
2019-02-17T08:02:46.230Z,102641.28
2019-02-17T08:05:18.469Z,102641.54
2019-02-17T08:07:50.733Z,102638.66
2019-02-17T08:10:23.015Z,102638.76
2019-02-17T08:12:54.944Z,102643.08
2019-02-17T08:15:27.389Z,102642.48
2019-02-17T08:17:59.320Z,102645.14
2019-02-17T08:20:31.255Z,102648.48
2019-02-17T08:23:03.185Z,102649.63
2019-02-17T08:25:35.122Z,102652.66
2019-02-17T08:28:07.494Z,102655.38
2019-02-17T08:30:39.396Z,102652.98
2019-02-17T08:33:11.608Z,102654.40
2019-02-17T08:35:43.559Z,102651.35
2019-02-17T08:38:15.509Z,102648.61
2019-02-17T08:40:47.469Z,102650.86
2019-02-17T08:43:19.419Z,102649.52
2019-02-17T08:45:51.364Z,102654.80
2019-02-17T08:48:24.921Z,102659.73
2019-02-17T08:50:56.790Z,102658.09
2019-02-17T08:53:28.752Z,102661.59
2019-02-17T08:56:00.690Z,102670.07
2019-02-17T08:58:32.928Z,102666.98
2019-02-17T09:01:10.071Z,102671.41
2019-02-17T09:03:42.035Z,102662.58
2019-02-17T09:06:13.966Z,102662.70
2019-02-17T09:08:45.915Z,102654.95
2019-02-17T09:11:17.855Z,102661.06
2019-02-17T09:13:49.810Z,102659.43
2019-02-17T09:16:21.750Z,102658.61
2019-02-17T09:18:53.715Z,102659.69
2019-02-17T09:21:25.644Z,102663.70
2019-02-17T09:23:57.626Z,102654.51
2019-02-17T09:26:29.800Z,102654.08
2019-02-17T09:29:01.816Z,102655.14
2019-02-17T09:31:34.130Z,102655.80
2019-02-17T09:34:06.112Z,102658.30
2019-02-17T09:36:38.376Z,102658.55
2019-02-17T09:39:10.957Z,102664.77
2019-02-17T09:41:42.889Z,102667.76
2019-02-17T09:44:14.891Z,102661.63
2019-02-17T09:46:46.845Z,102665.91
2019-02-17T09:49:18.839Z,102658.42
2019-02-17T09:51:50.770Z,102660.77
2019-02-17T09:54:22.727Z,102662.27
2019-02-17T09:56:55.728Z,102661.83
2019-02-17T09:59:27.683Z,102663.52
2019-02-17T10:01:59.682Z,102657.67
2019-02-17T10:04:31.621Z,102656.41
2019-02-17T10:07:04.037Z,102664.09
2019-02-17T10:09:35.968Z,102658.98
2019-02-17T10:12:13.597Z,102661.57
2019-02-17T10:14:45.569Z,102659.56
2019-02-17T10:17:17.779Z,102657.03
2019-02-17T10:19:49.844Z,102658.23
2019-02-17T10:22:21.744Z,102661.56
2019-02-17T10:24:53.702Z,102656.86
2019-02-17T10:27:25.655Z,102658.62
2019-02-17T10:29:57.651Z,102657.20
2019-02-17T10:32:36.469Z,102658.70
2019-02-17T10:35:03.242Z,102655.20
2019-02-17T10:37:35.175Z,102660.48
2019-02-17T10:40:17.175Z,102659.35
2019-02-17T10:42:49.129Z,102660.14
2019-02-17T10:45:21.072Z,102658.26
2019-02-17T10:47:53.032Z,102657.44
2019-02-17T10:50:24.998Z,102655.78
2019-02-17T10:52:57.003Z,102654.59
2019-02-17T10:55:29.041Z,102654.71
2019-02-17T10:58:01.001Z,102659.67
2019-02-17T11:00:33.024Z,102655.33
2019-02-17T11:03:08.191Z,102652.95
2019-02-17T11:05:40.278Z,102652.02
2019-02-17T11:08:12.221Z,102653.11
2019-02-17T11:10:44.227Z,102648.54
2019-02-17T11:13:16.431Z,102647.13
2019-02-17T11:15:48.380Z,102644.41
2019-02-17T11:18:20.309Z,102644.98
2019-02-17T11:20:52.269Z,102637.16
2019-02-17T11:23:24.283Z,102642.44
2019-02-17T11:25:56.600Z,102644.97
2019-02-17T11:28:28.532Z,102645.89
2019-02-17T11:31:00.547Z,102641.87
2019-02-17T11:33:32.933Z,102634.37
2019-02-17T11:36:04.943Z,102630.76
2019-02-17T11:38:36.885Z,102629.03
2019-02-17T11:41:08.832Z,102627.35
2019-02-17T11:43:40.804Z,102626.10
2019-02-17T11:46:13.370Z,102621.92
2019-02-17T11:48:45.687Z,102624.74
2019-02-17T11:51:17.625Z,102615.53
2019-02-17T11:53:49.574Z,102614.92
2019-02-17T11:56:21.518Z,102615.17
2019-02-17T11:58:53.853Z,102605.63
2019-02-17T12:01:26.127Z,102604.06
2019-02-17T12:03:58.073Z,102600.69
2019-02-17T12:06:30.049Z,102604.41
2019-02-17T12:09:01.979Z,102604.03
2019-02-17T12:11:34.111Z,102602.92
2019-02-17T12:14:06.054Z,102597.69
2019-02-17T12:16:38.413Z,102595.02
2019-02-17T12:19:10.353Z,102595.84
2019-02-17T12:21:44.027Z,102592.25
2019-02-17T12:24:23.807Z,102590.14
2019-02-17T12:27:06.409Z,102582.27
2019-02-17T12:29:40.065Z,102586.58
2019-02-17T12:32:12.009Z,102581.16
2019-02-17T12:34:44.013Z,102579.49
2019-02-17T12:37:16.008Z,102572.83
2019-02-17T12:39:47.942Z,102574.70
2019-02-17T12:42:19.897Z,102571.01
2019-02-17T12:44:51.922Z,102563.00
2019-02-17T12:47:23.932Z,102562.83
2019-02-17T12:49:55.887Z,102555.29
2019-02-17T12:52:27.829Z,102553.03
2019-02-17T12:54:59.778Z,102551.77
2019-02-17T12:57:31.727Z,102545.64
2019-02-17T13:00:04.918Z,102540.95
2019-02-17T13:02:36.887Z,102539.30
2019-02-17T13:05:10.552Z,102538.04
2019-02-17T13:07:43.054Z,102533.09
2019-02-17T13:10:15.197Z,102529.45
2019-02-17T13:12:47.155Z,102533.45
2019-02-17T13:15:19.092Z,102526.58
2019-02-17T13:17:52.975Z,102529.02
2019-02-17T13:20:24.802Z,102524.41
2019-02-17T13:22:56.811Z,102532.84
2019-02-17T13:25:28.788Z,102523.75
2019-02-17T13:28:00.811Z,102521.95
2019-02-17T13:30:32.746Z,102524.74
2019-02-17T13:33:04.782Z,102514.61
2019-02-17T13:35:36.789Z,102515.48
2019-02-17T13:38:08.798Z,102513.88
2019-02-17T13:40:40.828Z,102514.42
2019-02-17T13:43:12.766Z,102507.34
2019-02-17T13:45:45.598Z,102510.08
2019-02-17T13:48:17.535Z,102510.25
2019-02-17T13:50:49.476Z,102507.68
2019-02-17T13:53:21.429Z,102515.45
2019-02-17T13:55:54.559Z,102509.86
2019-02-17T13:58:26.497Z,102504.44
2019-02-17T14:00:58.446Z,102506.89
2019-02-17T14:03:30.383Z,102505.12
2019-02-17T14:06:02.427Z,102500.26
2019-02-17T14:08:34.375Z,102502.32
2019-02-17T14:11:06.679Z,102496.89
2019-02-17T14:13:38.648Z,102495.20
2019-02-17T14:16:10.619Z,102495.20
2019-02-17T14:18:42.551Z,102488.52
2019-02-17T14:21:14.836Z,102483.09
2019-02-17T14:23:46.915Z,102485.82
2019-02-17T14:26:18.850Z,102478.97
2019-02-17T14:28:50.905Z,102482.42
2019-02-17T14:31:22.839Z,102473.58
2019-02-17T14:33:58.793Z,102468.97
2019-02-17T14:36:30.297Z,102467.71
2019-02-17T14:39:02.253Z,102463.48
2019-02-17T14:41:34.541Z,102464.58
2019-02-17T14:44:06.490Z,102461.06
2019-02-17T14:46:41.570Z,102461.44
2019-02-17T14:49:13.505Z,102457.16
2019-02-17T14:51:45.634Z,102457.10
2019-02-17T14:54:17.572Z,102451.79
2019-02-17T14:56:49.602Z,102449.19
2019-02-17T14:59:21.630Z,102445.67
2019-02-17T15:01:53.600Z,102439.10
2019-02-17T15:04:25.535Z,102438.64
2019-02-17T15:06:57.558Z,102438.74
2019-02-17T15:09:29.835Z,102437.74
2019-02-17T15:12:01.802Z,102437.69
2019-02-17T15:14:33.743Z,102437.48
2019-02-17T15:17:05.691Z,102435.77
2019-02-17T15:19:37.662Z,102438.64
2019-02-17T15:22:09.618Z,102440.13
2019-02-17T15:24:41.561Z,102434.42
2019-02-17T15:27:14.100Z,102431.06
2019-02-17T15:29:46.044Z,102429.84
2019-02-17T15:32:17.999Z,102426.41
2019-02-17T15:34:49.937Z,102424.97
2019-02-17T15:37:22.763Z,102423.19
2019-02-17T15:39:54.697Z,102415.94
2019-02-17T15:42:26.646Z,102415.45
2019-02-17T15:44:58.641Z,102413.74
2019-02-17T15:47:30.597Z,102411.20
2019-02-17T15:50:02.530Z,102410.49
2019-02-17T15:52:34.774Z,102412.59
2019-02-17T15:55:14.891Z,102415.03
2019-02-17T15:57:48.932Z,102418.08
2019-02-17T16:00:21.288Z,102420.85
2019-02-17T16:02:53.623Z,102414.48
2019-02-17T16:05:26.458Z,102405.93
2019-02-17T16:07:58.420Z,102410.39
2019-02-17T16:10:30.371Z,102407.38
2019-02-17T16:13:02.311Z,102413.85
2019-02-17T16:15:34.644Z,102412.16
2019-02-17T16:18:06.583Z,102405.70
2019-02-17T16:20:38.577Z,102402.55
2019-02-17T16:23:10.510Z,102404.98
2019-02-17T16:25:42.475Z,102406.35
2019-02-17T16:28:18.227Z,102404.99
2019-02-17T16:30:50.189Z,102408.22
2019-02-17T16:33:22.403Z,102408.66
2019-02-17T16:35:54.416Z,102405.14
2019-02-17T16:38:26.527Z,102402.35
2019-02-17T16:40:58.478Z,102405.45
2019-02-17T16:43:30.495Z,102402.38
2019-02-17T16:46:02.430Z,102400.45
2019-02-17T16:48:34.387Z,102406.17
2019-02-17T16:51:06.325Z,102411.65
2019-02-17T16:53:38.280Z,102412.61
2019-02-17T16:56:10.229Z,102412.61
2019-02-17T16:58:42.467Z,102411.69
2019-02-17T17:01:14.395Z,102405.36
2019-02-17T17:03:46.418Z,102407.81
2019-02-17T17:06:18.369Z,102410.89
2019-02-17T17:08:50.320Z,102412.98
2019-02-17T17:11:22.534Z,102406.42
2019-02-17T17:13:54.808Z,102412.72
2019-02-17T17:16:27.010Z,102417.00
2019-02-17T17:18:58.968Z,102423.80
2019-02-17T17:21:30.899Z,102415.34
2019-02-17T17:24:03.500Z,102416.80
2019-02-17T17:26:35.564Z,102415.56
2019-02-17T17:29:07.503Z,102410.17
2019-02-17T17:31:39.447Z,102410.89
2019-02-17T17:34:12.344Z,102409.62
2019-02-17T17:36:44.276Z,102401.33
2019-02-17T17:39:16.219Z,102401.67
2019-02-17T17:41:48.149Z,102398.38
2019-02-17T17:44:20.119Z,102400.62
2019-02-17T17:46:52.046Z,102404.75
2019-02-17T17:49:24.338Z,102402.11
2019-02-17T17:51:56.655Z,102401.92
2019-02-17T17:54:28.623Z,102404.26
2019-02-17T17:57:00.758Z,102399.20
2019-02-17T17:59:32.685Z,102391.39
2019-02-17T18:02:04.898Z,102399.62
2019-02-17T18:04:36.885Z,102394.62
2019-02-17T18:07:09.263Z,102393.52
2019-02-17T18:09:41.214Z,102391.47
2019-02-17T18:12:13.142Z,102398.65
2019-02-17T18:14:45.109Z,102395.71
2019-02-17T18:17:17.033Z,102397.73
2019-02-17T18:19:50.733Z,102400.78
2019-02-17T18:22:22.662Z,102396.97
2019-02-17T18:24:54.606Z,102397.21
2019-02-17T18:27:26.528Z,102397.09
2019-02-17T18:29:59.036Z,102388.38
2019-02-17T18:32:33.864Z,102396.20
2019-02-17T18:35:06.421Z,102393.73
2019-02-17T18:37:38.436Z,102390.16
2019-02-17T18:40:17.071Z,102387.84
2019-02-17T18:42:49.043Z,102387.75
2019-02-17T18:45:20.989Z,102386.52
2019-02-17T18:47:53.621Z,102385.16
2019-02-17T18:50:25.553Z,102387.86
2019-02-17T18:52:57.768Z,102386.78
2019-02-17T18:55:29.714Z,102388.00
2019-02-17T18:58:01.711Z,102387.55
2019-02-17T19:00:33.666Z,102384.49
2019-02-17T19:03:06.144Z,102384.08
2019-02-17T19:05:38.100Z,102390.19
2019-02-17T19:08:10.028Z,102391.77
2019-02-17T19:10:41.989Z,102395.78
2019-02-17T19:13:13.925Z,102402.52
2019-02-17T19:15:45.934Z,102395.10
2019-02-17T19:18:17.858Z,102391.58
2019-02-17T19:20:49.801Z,102393.36
2019-02-17T19:23:22.077Z,102393.66
2019-02-17T19:25:54.109Z,102395.42
2019-02-17T19:28:26.037Z,102396.05
2019-02-17T19:30:57.983Z,102393.48
2019-02-17T19:33:29.934Z,102403.09
2019-02-17T19:36:02.292Z,102394.89
2019-02-17T19:38:34.256Z,102401.73
2019-02-17T19:41:06.190Z,102397.42
2019-02-17T19:43:38.119Z,102397.66
2019-02-17T19:46:10.048Z,102391.64
2019-02-17T19:48:42.113Z,102390.31
2019-02-17T19:51:14.062Z,102396.34
2019-02-17T19:53:46.018Z,102397.03
2019-02-17T19:56:18.018Z,102393.93
2019-02-17T19:58:50.324Z,102393.05
2019-02-17T20:01:23.023Z,102396.10
2019-02-17T20:03:56.614Z,102400.39
2019-02-17T20:06:37.386Z,102394.58
2019-02-17T20:09:10.956Z,102397.88
2019-02-17T20:11:42.877Z,102396.68
2019-02-17T20:14:15.164Z,102391.66
2019-02-17T20:16:47.097Z,102394.70
2019-02-17T20:19:19.220Z,102391.31
2019-02-17T20:21:51.250Z,102394.52
2019-02-17T20:24:23.173Z,102392.37
2019-02-17T20:26:55.118Z,102385.27
2019-02-17T20:29:27.112Z,102387.20
2019-02-17T20:31:59.040Z,102386.91
2019-02-17T20:34:30.969Z,102381.56
2019-02-17T20:37:02.991Z,102382.73
2019-02-17T20:39:34.906Z,102378.10
2019-02-17T20:42:06.869Z,102376.02
2019-02-17T20:44:39.961Z,102371.38
2019-02-17T20:47:11.899Z,102369.95
2019-02-17T20:49:43.836Z,102370.89
2019-02-17T20:52:15.827Z,102368.73
2019-02-17T20:54:47.767Z,102366.55
2019-02-17T20:57:19.682Z,102363.13
2019-02-17T20:59:51.951Z,102359.05
2019-02-17T21:02:23.867Z,102363.33
2019-02-17T21:04:55.824Z,102357.84
2019-02-17T21:07:27.753Z,102365.42
2019-02-17T21:09:59.760Z,102356.61
2019-02-17T21:12:31.759Z,102364.06
2019-02-17T21:15:03.712Z,102364.81
2019-02-17T21:17:36.005Z,102364.88
2019-02-17T21:20:11.215Z,102359.86
2019-02-17T21:22:43.418Z,102364.85
2019-02-17T21:25:16.144Z,102362.31
2019-02-17T21:27:48.095Z,102359.34
2019-02-17T21:30:21.739Z,102356.80
2019-02-17T21:32:53.671Z,102353.86
2019-02-17T21:35:25.893Z,102351.67
2019-02-17T21:37:58.158Z,102344.10
2019-02-17T21:40:30.082Z,102340.73
2019-02-17T21:43:02.009Z,102337.84
2019-02-17T21:45:33.942Z,102340.55
2019-02-17T21:48:06.237Z,102334.58
2019-02-17T21:50:38.188Z,102331.34
2019-02-17T21:53:20.046Z,102326.84
2019-02-17T21:55:43.756Z,102321.30
2019-02-17T21:58:15.671Z,102324.37
2019-02-17T22:00:47.671Z,102314.75
2019-02-17T22:03:19.616Z,102313.54
2019-02-17T22:05:51.550Z,102317.95
2019-02-17T22:08:26.065Z,102313.73
2019-02-17T22:10:57.109Z,102319.84
2019-02-17T22:13:29.086Z,102318.73
2019-02-17T22:16:01.413Z,102316.61
2019-02-17T22:18:33.514Z,102317.98
2019-02-17T22:21:05.436Z,102317.81
2019-02-17T22:23:39.879Z,102310.73
2019-02-17T22:26:11.481Z,102311.55
2019-02-17T22:28:43.400Z,102307.12
2019-02-17T22:31:15.639Z,102292.05
2019-02-17T22:33:47.559Z,102291.46
2019-02-17T22:36:19.491Z,102294.30
2019-02-17T22:38:51.507Z,102294.42
2019-02-17T22:41:23.429Z,102289.77
2019-02-17T22:43:55.673Z,102279.94
2019-02-17T22:46:27.597Z,102276.39
2019-02-17T22:48:59.526Z,102268.79
2019-02-17T22:51:31.454Z,102266.02
2019-02-17T22:54:03.503Z,102259.20
2019-02-17T22:56:36.060Z,102261.91
2019-02-17T22:59:08.276Z,102252.34
2019-02-17T23:01:40.209Z,102252.28
2019-02-17T23:04:12.132Z,102242.53
2019-02-17T23:06:53.544Z,102246.41
2019-02-17T23:09:17.980Z,102259.88
2019-02-17T23:11:49.917Z,102261.38
2019-02-17T23:14:21.851Z,102263.73
2019-02-17T23:16:53.876Z,102263.87
2019-02-17T23:19:25.945Z,102271.53
2019-02-17T23:21:57.892Z,102280.59
2019-02-17T23:24:30.118Z,102287.94
2019-02-17T23:27:04.108Z,102299.12
2019-02-17T23:29:35.688Z,102314.26
2019-02-17T23:32:07.618Z,102318.75
2019-02-17T23:34:39.561Z,102315.53
2019-02-17T23:37:11.496Z,102313.56
2019-02-17T23:39:43.425Z,102306.30
2019-02-17T23:42:15.597Z,102309.03
2019-02-17T23:44:47.542Z,102305.80
2019-02-17T23:47:19.466Z,102307.36
2019-02-17T23:49:51.414Z,102307.36
2019-02-17T23:52:23.398Z,102303.61
2019-02-17T23:54:55.343Z,102287.05
2019-02-17T23:57:27.332Z,102282.52
2019-02-17T23:59:59.285Z,102280.13
